createdAt,value
2019-04-20T00:01:07.355Z,10.79
2019-04-20T00:03:38.013Z,10.78
2019-04-20T00:06:03.540Z,10.95
2019-04-20T00:08:34.516Z,11.12
2019-04-20T00:11:07.339Z,11.03
2019-04-20T00:13:35.746Z,11.16
2019-04-20T00:15:57.743Z,11.23
2019-04-20T00:18:32.391Z,11.23
2019-04-20T00:21:03.852Z,11.14
2019-04-20T00:23:43.847Z,11.07
2019-04-20T00:26:56.192Z,11.08
2019-04-20T00:29:16.050Z,11.22
2019-04-20T00:31:41.998Z,11.34
2019-04-20T00:34:06.148Z,11.42
2019-04-20T00:36:41.499Z,11.50
2019-04-20T00:39:11.412Z,11.36
2019-04-20T00:41:44.128Z,11.65
2019-04-20T00:44:13.376Z,11.53
2019-04-20T00:46:46.907Z,11.16
2019-04-20T00:49:24.280Z,10.93
2019-04-20T00:51:52.540Z,10.69
2019-04-20T00:54:02.559Z,10.60
2019-04-20T00:56:30.962Z,10.43
2019-04-20T00:59:09.140Z,10.36
2019-04-20T01:01:50.224Z,10.24
2019-04-20T01:04:15.214Z,10.22
2019-04-20T01:07:08.976Z,10.15
2019-04-20T01:09:46.276Z,10.14
2019-04-20T01:12:18.178Z,10.45
2019-04-20T01:14:48.704Z,10.37
2019-04-20T01:17:12.100Z,10.44
2019-04-20T01:19:39.390Z,10.42
2019-04-20T01:22:11.003Z,10.24
2019-04-20T01:24:39.441Z,10.20
2019-04-20T01:27:05.651Z,10.21
2019-04-20T01:29:39.372Z,10.12
2019-04-20T01:32:10.580Z,10.20
2019-04-20T01:34:42.729Z,10.25
2019-04-20T01:37:13.120Z,10.21
2019-04-20T01:39:35.483Z,10.16
2019-04-20T01:41:56.111Z,10.35
2019-04-20T01:44:27.055Z,10.12
2019-04-20T01:46:57.045Z,10.03
2019-04-20T01:49:22.739Z,9.83
2019-04-20T01:51:57.495Z,9.77
2019-04-20T01:54:31.120Z,9.68
2019-04-20T01:57:01.687Z,9.55
2019-04-20T01:59:39.954Z,9.84
2019-04-20T02:02:11.568Z,9.74
2019-04-20T02:05:04.431Z,9.59
2019-04-20T02:07:34.617Z,9.63
2019-04-20T02:09:59.812Z,9.45
2019-04-20T02:12:28.354Z,9.23
2019-04-20T02:14:57.041Z,9.05
2019-04-20T02:17:29.826Z,8.94
2019-04-20T02:20:12.642Z,9.00
2019-04-20T02:22:38.341Z,8.97
2019-04-20T02:24:46.842Z,9.04
2019-04-20T02:27:14.730Z,9.08
2019-04-20T02:30:07.679Z,9.02
2019-04-20T02:32:36.548Z,8.77
2019-04-20T02:35:30.222Z,8.61
2019-04-20T02:40:39.712Z,8.69
2019-04-20T02:48:08.187Z,8.59
2019-04-20T02:50:34.222Z,8.47
2019-04-20T02:53:11.454Z,8.39
2019-04-20T02:55:24.818Z,8.42
2019-04-20T03:02:51.969Z,8.31
2019-04-20T03:05:22.961Z,8.41
2019-04-20T03:07:59.360Z,8.52
2019-04-20T03:10:36.573Z,8.43
2019-04-20T03:12:55.029Z,8.48
2019-04-20T03:15:31.401Z,8.35
2019-04-20T03:17:59.173Z,8.44
2019-04-20T03:20:23.259Z,8.49
2019-04-20T03:23:11.699Z,8.31
2019-04-20T03:25:45.265Z,8.18
2019-04-20T03:28:10.381Z,8.64
2019-04-20T03:33:58.387Z,8.62
2019-04-20T03:36:14.658Z,8.47
2019-04-20T03:38:47.893Z,8.34
2019-04-20T03:41:26.395Z,8.21
2019-04-20T03:43:47.639Z,8.15
2019-04-20T03:46:19.179Z,8.23
2019-04-20T03:49:01.351Z,8.23
2019-04-20T03:51:33.359Z,8.29
2019-04-20T03:54:13.595Z,8.24
2019-04-20T03:57:06.613Z,8.23
2019-04-20T04:00:03.384Z,8.14
2019-04-20T04:05:28.471Z,8.09
2019-04-20T04:07:47.015Z,8.12
2019-04-20T04:10:27.307Z,8.11
2019-04-20T04:13:05.517Z,8.13
2019-04-20T04:15:36.138Z,8.07
2019-04-20T04:18:10.264Z,7.92
2019-04-20T04:20:38.657Z,7.92
2019-04-20T04:23:14.980Z,7.89
2019-04-20T04:25:39.849Z,7.76
2019-04-20T04:28:12.905Z,7.69
2019-04-20T04:30:40.310Z,7.63
2019-04-20T04:35:34.892Z,7.65
2019-04-20T04:38:05.809Z,7.65
2019-04-20T04:41:11.203Z,7.80
2019-04-20T04:43:28.504Z,7.72
2019-04-20T04:45:38.595Z,7.61
2019-04-20T04:48:13.093Z,7.49
2019-04-20T04:50:44.568Z,7.46
2019-04-20T04:53:11.198Z,7.47
2019-04-20T04:55:42.936Z,7.65
2019-04-20T04:58:00.492Z,7.65
2019-04-20T05:00:31.095Z,7.59
2019-04-20T05:03:02.009Z,7.57
2019-04-20T05:05:58.886Z,7.55
2019-04-20T05:08:18.066Z,7.62
2019-04-20T05:10:37.022Z,7.70
2019-04-20T05:13:04.987Z,7.81
2019-04-20T05:15:46.122Z,7.83
2019-04-20T05:18:21.853Z,7.83
2019-04-20T05:20:54.661Z,7.82
2019-04-20T05:23:31.977Z,7.86
2019-04-20T05:26:16.898Z,7.97
2019-04-20T05:28:33.568Z,7.91
2019-04-20T05:30:59.490Z,8.14
2019-04-20T05:33:36.519Z,8.21
2019-04-20T05:36:11.765Z,8.34
2019-04-20T05:38:42.050Z,8.44
2019-04-20T05:41:10.003Z,8.65
2019-04-20T05:46:16.927Z,9.10
2019-04-20T05:48:45.700Z,9.49
2019-04-20T05:51:13.452Z,10.10
2019-04-20T05:53:44.386Z,10.47
2019-04-20T05:56:09.138Z,10.49
2019-04-20T05:58:38.780Z,10.49
2019-04-20T06:01:08.857Z,10.43
2019-04-20T06:03:37.155Z,10.36
2019-04-20T06:06:23.535Z,10.33
2019-04-20T06:08:51.214Z,10.37
2019-04-20T06:11:03.859Z,10.40
2019-04-20T06:13:47.048Z,10.51
2019-04-20T06:16:31.074Z,10.84
2019-04-20T06:19:13.052Z,11.22
2019-04-20T06:21:54.326Z,11.99
2019-04-20T06:24:24.945Z,12.68
2019-04-20T06:26:49.250Z,12.89
2019-04-20T06:28:58.229Z,12.92
2019-04-20T06:31:36.102Z,13.14
2019-04-20T06:44:31.748Z,20.10
2019-04-20T06:47:04.180Z,20.05
2019-04-20T06:55:05.467Z,23.58
2019-04-20T06:57:50.212Z,24.58
2019-04-20T07:00:10.342Z,24.58
2019-04-20T07:02:39.661Z,26.12
2019-04-20T07:05:05.334Z,27.42
2019-04-20T07:07:33.984Z,26.74
2019-04-20T07:10:08.875Z,27.33
2019-04-20T07:12:27.222Z,28.32
2019-04-20T07:14:49.009Z,29.30
2019-04-20T07:17:59.731Z,30.15
2019-04-20T07:20:42.765Z,30.57
2019-04-20T07:23:18.668Z,29.52
2019-04-20T07:25:38.163Z,30.43
2019-04-20T07:28:09.571Z,31.53
2019-04-20T07:30:32.480Z,31.57
2019-04-20T07:33:01.915Z,31.77
2019-04-20T07:35:31.883Z,31.32
2019-04-20T07:38:25.586Z,32.29
2019-04-20T07:40:25.797Z,33.32
2019-04-20T07:42:55.247Z,32.87
2019-04-20T07:47:52.696Z,34.00
2019-04-20T07:50:20.092Z,33.08
2019-04-20T07:52:39.664Z,33.07
2019-04-20T07:55:33.365Z,33.57
2019-04-20T07:57:42.896Z,33.91
2019-04-20T08:00:16.324Z,33.07
2019-04-20T08:03:12.951Z,32.25
2019-04-20T08:05:33.545Z,32.68
2019-04-20T08:08:02.602Z,31.38
2019-04-20T08:10:34.172Z,31.20
2019-04-20T08:13:14.262Z,31.67
2019-04-20T08:15:43.232Z,31.03
2019-04-20T08:18:02.750Z,31.69
2019-04-20T08:20:32.813Z,32.35
2019-04-20T08:22:58.850Z,32.62
2019-04-20T08:25:26.931Z,32.34
2019-04-20T08:27:59.136Z,34.35
2019-04-20T08:30:56.072Z,36.07
2019-04-20T08:33:24.462Z,34.00
2019-04-20T08:36:02.845Z,34.98
2019-04-20T08:40:54.956Z,35.71
2019-04-20T08:43:40.665Z,34.45
2019-04-20T08:45:57.098Z,34.07
2019-04-20T08:48:23.412Z,35.11
2019-04-20T08:50:50.489Z,35.35
2019-04-20T08:53:20.698Z,34.77
2019-04-20T08:55:42.554Z,37.06
2019-04-20T08:57:54.386Z,38.40
2019-04-20T09:00:29.745Z,37.16
2019-04-20T09:02:57.868Z,34.55
2019-04-20T09:05:30.418Z,36.02
2019-04-20T09:08:00.106Z,37.39
2019-04-20T09:10:40.754Z,37.03
2019-04-20T09:13:01.513Z,35.88
2019-04-20T09:15:16.867Z,34.88
2019-04-20T09:17:54.062Z,34.15
2019-04-20T09:20:29.477Z,31.57
2019-04-20T09:23:13.476Z,32.77
2019-04-20T09:28:23.813Z,34.40
2019-04-20T09:30:53.176Z,35.47
2019-04-20T09:33:47.017Z,35.95
2019-04-20T09:36:18.005Z,37.26
2019-04-20T09:39:21.087Z,36.49
2019-04-20T09:44:33.662Z,32.11
2019-04-20T09:46:58.299Z,32.11
2019-04-20T09:49:39.423Z,34.32
2019-04-20T09:52:06.850Z,37.12
2019-04-20T09:54:37.032Z,36.48
2019-04-20T09:57:10.064Z,36.58
2019-04-20T09:59:37.183Z,37.06
2019-04-20T10:01:55.538Z,35.66
2019-04-20T10:04:17.418Z,35.87
2019-04-20T10:06:45.573Z,35.99
2019-04-20T10:09:13.675Z,36.03
2019-04-20T10:11:43.418Z,35.36
2019-04-20T10:14:10.414Z,35.31
2019-04-20T10:16:39.714Z,35.87
2019-04-20T10:19:07.875Z,36.26
2019-04-20T10:21:35.993Z,37.82
2019-04-20T10:24:02.937Z,37.13
2019-04-20T10:26:30.296Z,36.65
2019-04-20T10:28:57.480Z,36.80
2019-04-20T10:31:24.571Z,35.87
2019-04-20T10:33:51.489Z,37.00
2019-04-20T10:36:29.834Z,36.36
2019-04-20T10:38:58.154Z,37.40
2019-04-20T10:41:37.024Z,37.06
2019-04-20T10:43:53.881Z,36.96
2019-04-20T10:46:20.799Z,38.11
2019-04-20T10:48:50.793Z,38.37
2019-04-20T10:51:17.646Z,37.79
2019-04-20T10:53:44.641Z,37.07
2019-04-20T10:56:11.725Z,34.58
2019-04-20T10:58:40.020Z,34.26
2019-04-20T11:01:07.397Z,36.17
2019-04-20T11:03:34.627Z,34.78
2019-04-20T11:06:02.737Z,35.30
2019-04-20T11:08:30.664Z,37.04
2019-04-20T11:11:08.310Z,36.05
2019-04-20T11:13:27.603Z,38.27
2019-04-20T11:15:54.784Z,37.76
2019-04-20T11:18:21.791Z,38.01
2019-04-20T11:20:49.151Z,37.85
2019-04-20T11:23:16.202Z,34.48
2019-04-20T11:25:43.877Z,32.02
2019-04-20T11:28:12.261Z,34.17
2019-04-20T11:30:40.408Z,32.39
2019-04-20T11:33:07.213Z,32.42
2019-04-20T11:35:37.646Z,31.86
2019-04-20T11:38:02.987Z,33.55
2019-04-20T11:40:31.384Z,34.97
2019-04-20T11:42:58.093Z,37.05
2019-04-20T11:45:24.869Z,39.19
2019-04-20T11:47:51.677Z,38.19
2019-04-20T11:50:19.820Z,37.54
2019-04-20T11:52:49.237Z,36.63
2019-04-20T11:55:16.050Z,38.23
2019-04-20T11:57:43.210Z,37.89
2019-04-20T12:00:13.195Z,37.33
2019-04-20T12:03:00.301Z,39.16
2019-04-20T12:05:36.930Z,38.41
2019-04-20T12:08:00.822Z,37.77
2019-04-20T12:10:28.350Z,35.67
2019-04-20T12:12:57.551Z,32.49
2019-04-20T12:15:24.546Z,33.99
2019-04-20T12:17:51.540Z,36.79
2019-04-20T12:20:18.638Z,39.19
2019-04-20T12:22:46.244Z,39.51
2019-04-20T12:25:14.245Z,38.16
2019-04-20T12:27:47.630Z,35.85
2019-04-20T12:30:12.083Z,36.46
2019-04-20T12:32:42.938Z,37.40
2019-04-20T12:35:08.657Z,35.76
2019-04-20T12:37:36.819Z,33.92
2019-04-20T12:40:05.037Z,35.07
2019-04-20T12:42:32.937Z,34.42
2019-04-20T12:44:59.739Z,31.78
2019-04-20T12:47:27.677Z,36.65
2019-04-20T12:49:55.817Z,36.68
2019-04-20T12:52:22.818Z,36.48
2019-04-20T12:54:50.441Z,39.93
2019-04-20T12:57:18.485Z,38.48
2019-04-20T12:59:47.240Z,38.64
2019-04-20T13:02:15.407Z,41.15
2019-04-20T13:04:43.543Z,43.41
2019-04-20T13:07:12.157Z,42.14
2019-04-20T13:09:48.580Z,42.87
2019-04-20T13:12:23.599Z,44.43
2019-04-20T13:15:18.305Z,42.35
2019-04-20T13:17:46.488Z,43.14
2019-04-20T13:20:36.221Z,42.60
2019-04-20T13:23:04.440Z,42.53
2019-04-20T13:25:32.891Z,44.14
2019-04-20T13:28:00.936Z,43.02
2019-04-20T13:30:28.055Z,40.71
2019-04-20T13:32:57.124Z,40.57
2019-04-20T13:35:23.537Z,39.68
2019-04-20T13:37:50.328Z,40.27
2019-04-20T13:40:17.668Z,41.56
2019-04-20T13:42:45.617Z,40.96
2019-04-20T13:45:13.007Z,38.54
2019-04-20T13:47:40.857Z,38.95
2019-04-20T13:50:09.344Z,34.56
2019-04-20T13:52:36.467Z,34.30
2019-04-20T13:55:03.624Z,35.62
2019-04-20T13:57:37.997Z,34.14
2019-04-20T14:00:26.195Z,35.66
2019-04-20T14:03:00.631Z,38.49
2019-04-20T14:05:48.926Z,36.50
2019-04-20T14:08:21.166Z,36.39
2019-04-20T14:10:49.196Z,34.88
2019-04-20T14:13:19.208Z,33.08
2019-04-20T14:16:07.264Z,33.20
2019-04-20T14:18:35.368Z,35.04
2019-04-20T14:21:02.448Z,38.08
2019-04-20T14:23:30.824Z,36.63
2019-04-20T14:25:58.766Z,35.80
2019-04-20T14:28:25.539Z,37.76
2019-04-20T14:30:54.063Z,38.77
2019-04-20T14:33:21.034Z,39.75
2019-04-20T14:35:48.386Z,38.45
2019-04-20T14:38:15.443Z,39.12
2019-04-20T14:40:42.320Z,38.09
2019-04-20T14:43:09.013Z,37.96
2019-04-20T14:45:36.618Z,37.84
2019-04-20T14:48:03.788Z,37.15
2019-04-20T14:50:31.726Z,37.18
2019-04-20T14:52:59.774Z,37.74
2019-04-20T14:55:26.755Z,37.31
2019-04-20T14:57:55.472Z,38.08
2019-04-20T15:00:41.664Z,37.07
2019-04-20T15:03:26.675Z,38.54
2019-04-20T15:05:57.735Z,39.31
2019-04-20T15:08:24.891Z,37.37
2019-04-20T15:10:52.153Z,37.80
2019-04-20T15:13:20.400Z,38.00
2019-04-20T15:15:48.510Z,38.26
2019-04-20T15:18:15.768Z,38.07
2019-04-20T15:20:46.036Z,38.45
2019-04-20T15:23:17.431Z,37.25
2019-04-20T15:25:44.547Z,35.80
2019-04-20T15:28:12.316Z,35.77
2019-04-20T15:30:40.362Z,35.77
2019-04-20T15:33:07.349Z,36.40
2019-04-20T15:35:34.708Z,35.10
2019-04-20T15:38:02.816Z,35.10
2019-04-20T15:40:31.033Z,34.42
2019-04-20T15:43:05.961Z,34.55
2019-04-20T15:45:27.360Z,35.26
2019-04-20T15:47:54.266Z,36.02
2019-04-20T15:50:22.189Z,36.12
2019-04-20T15:52:52.691Z,34.67
2019-04-20T15:55:24.868Z,35.14
2019-04-20T15:57:46.545Z,35.95
2019-04-20T16:00:14.260Z,35.20
2019-04-20T16:02:49.415Z,33.56
2019-04-20T16:05:37.572Z,32.87
2019-04-20T16:08:42.385Z,33.96
2019-04-20T16:11:11.281Z,33.08
2019-04-20T16:13:43.654Z,31.10
2019-04-20T16:16:07.888Z,31.05
2019-04-20T16:18:35.072Z,30.26
2019-04-20T16:21:07.948Z,30.30
2019-04-20T16:23:40.803Z,29.76
2019-04-20T16:26:17.855Z,29.98
2019-04-20T16:28:45.873Z,29.23
2019-04-20T16:31:15.270Z,30.38
2019-04-20T16:33:42.253Z,29.92
2019-04-20T16:36:10.298Z,30.64
2019-04-20T16:38:37.328Z,30.52
2019-04-20T16:41:04.312Z,30.18
2019-04-20T16:43:37.380Z,30.35
2019-04-20T16:46:23.492Z,29.20
2019-04-20T16:48:48.428Z,28.17
2019-04-20T16:51:16.630Z,26.59
2019-04-20T16:53:43.733Z,26.14
2019-04-20T16:56:10.743Z,25.42
2019-04-20T16:58:37.880Z,24.82
2019-04-20T17:01:05.719Z,24.66
2019-04-20T17:03:48.875Z,24.22
2019-04-20T17:06:02.300Z,24.17
2019-04-20T17:08:29.242Z,24.06
2019-04-20T17:10:56.221Z,23.96
2019-04-20T17:13:34.072Z,23.85
2019-04-20T17:15:51.965Z,23.74
2019-04-20T17:18:19.306Z,23.53
2019-04-20T17:20:46.483Z,23.24
2019-04-20T17:23:13.628Z,22.87
2019-04-20T17:25:40.715Z,23.00
2019-04-20T17:28:40.652Z,22.98
2019-04-20T17:34:25.034Z,22.70
2019-04-20T17:36:38.408Z,22.47
2019-04-20T17:39:11.443Z,22.30
2019-04-20T17:41:54.593Z,22.26
2019-04-20T17:44:23.795Z,22.07
2019-04-20T17:46:41.325Z,21.78
2019-04-20T17:49:16.966Z,21.63
2019-04-20T17:51:55.544Z,21.56
2019-04-20T17:54:17.610Z,21.47
2019-04-20T17:56:44.724Z,21.34
2019-04-20T17:59:12.454Z,21.20
2019-04-20T18:02:13.148Z,21.11
2019-04-20T18:05:09.908Z,20.95
2019-04-20T18:07:36.628Z,20.83
2019-04-20T18:10:03.178Z,20.63
2019-04-20T18:12:18.804Z,20.42
2019-04-20T18:14:57.381Z,20.12
2019-04-20T18:17:54.672Z,19.95
2019-04-20T18:20:23.064Z,19.71
2019-04-20T18:22:55.224Z,19.46
2019-04-20T18:25:49.946Z,19.29
2019-04-20T18:28:04.136Z,19.09
2019-04-20T18:30:40.725Z,18.85
2019-04-20T18:32:55.927Z,18.59
2019-04-20T18:35:24.535Z,18.16
2019-04-20T18:37:59.295Z,17.94
2019-04-20T18:40:31.018Z,17.79
2019-04-20T18:42:55.869Z,17.59
2019-04-20T18:45:38.164Z,17.49
2019-04-20T18:48:05.952Z,17.40
2019-04-20T18:50:22.464Z,17.16
2019-04-20T18:52:45.415Z,17.06
2019-04-20T18:55:23.284Z,16.90
2019-04-20T18:57:43.439Z,16.73
2019-04-20T19:00:19.157Z,16.55
2019-04-20T19:02:47.503Z,16.51
2019-04-20T19:05:11.619Z,16.40
2019-04-20T19:07:41.468Z,16.27
2019-04-20T19:10:16.682Z,16.06
2019-04-20T19:12:47.246Z,15.95
2019-04-20T19:15:48.109Z,15.80
2019-04-20T19:18:11.633Z,15.71
2019-04-20T19:20:34.740Z,15.49
2019-04-20T19:23:02.203Z,15.54
2019-04-20T19:25:34.557Z,15.33
2019-04-20T19:28:00.099Z,15.25
2019-04-20T19:30:35.303Z,15.10
2019-04-20T19:33:16.260Z,15.09
2019-04-20T19:35:33.924Z,15.00
2019-04-20T19:38:19.034Z,14.84
2019-04-20T19:40:51.260Z,14.83
2019-04-20T19:43:22.090Z,14.72
2019-04-20T19:46:08.537Z,14.62
2019-04-20T19:48:22.411Z,14.56
2019-04-20T19:50:58.916Z,14.54
2019-04-20T19:53:26.582Z,14.52
2019-04-20T19:56:07.723Z,14.43
2019-04-20T19:58:32.275Z,14.27
2019-04-20T20:00:53.788Z,14.17
2019-04-20T20:03:21.603Z,14.14
2019-04-20T20:05:51.889Z,14.07
2019-04-20T20:08:23.053Z,13.84
2019-04-20T20:10:46.150Z,13.70
2019-04-20T20:13:13.240Z,13.64
2019-04-20T20:15:41.757Z,13.50
2019-04-20T20:18:23.177Z,13.42
2019-04-20T20:20:55.501Z,13.23
2019-04-20T20:23:07.896Z,13.22
2019-04-20T20:25:39.175Z,13.14
2019-04-20T20:28:16.987Z,12.94
2019-04-20T20:30:42.177Z,12.92
2019-04-20T20:33:18.882Z,12.80
2019-04-20T20:35:41.303Z,12.61
2019-04-20T20:38:01.094Z,12.50
2019-04-20T20:40:32.849Z,12.52
2019-04-20T20:43:07.277Z,12.46
2019-04-20T20:45:34.975Z,12.39
2019-04-20T20:48:13.470Z,12.38
2019-04-20T20:50:45.372Z,12.36
2019-04-20T20:53:02.254Z,12.46
2019-04-20T20:55:29.636Z,12.36
2019-04-20T20:57:59.246Z,12.37
2019-04-20T21:00:28.432Z,12.32
2019-04-20T21:02:56.211Z,12.25
2019-04-20T21:05:15.583Z,12.32
2019-04-20T21:07:42.760Z,12.44
2019-04-20T21:10:39.773Z,12.45
2019-04-20T21:13:03.443Z,12.38
2019-04-20T21:15:29.899Z,12.36
2019-04-20T21:18:20.778Z,12.30
2019-04-20T21:20:45.181Z,12.33
2019-04-20T21:23:07.181Z,12.27
2019-04-20T21:25:37.283Z,12.16
2019-04-20T21:27:57.054Z,12.05
2019-04-20T21:30:32.483Z,11.93
2019-04-20T21:32:57.279Z,11.79
2019-04-20T21:35:21.834Z,11.78
2019-04-20T21:37:58.272Z,11.73
2019-04-20T21:40:41.376Z,11.70
2019-04-20T21:43:08.816Z,11.65
2019-04-20T21:45:37.201Z,11.63
2019-04-20T21:48:12.728Z,11.59
2019-04-20T21:50:53.481Z,11.46
2019-04-20T21:53:08.690Z,11.57
2019-04-20T21:55:30.026Z,11.43
2019-04-20T21:58:00.427Z,11.25
2019-04-20T22:00:42.578Z,11.04
2019-04-20T22:03:09.862Z,10.93
2019-04-20T22:05:54.446Z,11.33
2019-04-20T22:08:22.222Z,11.09
2019-04-20T22:10:50.277Z,10.79
2019-04-20T22:13:40.228Z,10.69
2019-04-20T22:16:10.315Z,10.61
2019-04-20T22:18:46.352Z,10.44
2019-04-20T22:21:13.104Z,10.42
2019-04-20T22:24:03.213Z,10.36
2019-04-20T22:26:27.668Z,10.37
2019-04-20T22:28:50.021Z,10.26
2019-04-20T22:31:18.325Z,10.08
2019-04-20T22:33:46.831Z,10.25
2019-04-20T22:36:38.550Z,10.25
2019-04-20T22:39:34.644Z,10.03
2019-04-20T22:42:02.405Z,10.08
2019-04-20T22:44:28.383Z,9.96
2019-04-20T22:46:54.312Z,9.83
2019-04-20T22:49:42.029Z,9.68
2019-04-20T22:52:00.668Z,9.89
2019-04-20T22:54:36.331Z,9.72
2019-04-20T22:57:02.310Z,9.64
2019-04-20T22:59:22.594Z,9.46
2019-04-20T23:01:52.114Z,9.36
2019-04-20T23:04:15.040Z,9.21
2019-04-20T23:06:46.290Z,9.12
2019-04-20T23:09:13.279Z,9.06
2019-04-20T23:11:40.455Z,8.98
2019-04-20T23:14:08.690Z,8.94
2019-04-20T23:16:43.211Z,8.94
2019-04-20T23:19:04.519Z,8.92
2019-04-20T23:21:32.137Z,9.03
2019-04-20T23:24:03.822Z,9.07
2019-04-20T23:26:48.912Z,8.94
2019-04-20T23:29:15.780Z,9.03
2019-04-20T23:31:48.924Z,9.19
2019-04-20T23:34:16.565Z,9.12
2019-04-20T23:36:43.842Z,8.93
2019-04-20T23:39:08.718Z,8.82
2019-04-20T23:41:35.791Z,8.73
2019-04-20T23:44:25.189Z,8.61
2019-04-20T23:47:09.733Z,8.59
2019-04-20T23:49:53.808Z,8.84
2019-04-20T23:52:26.935Z,8.89
2019-04-20T23:54:35.074Z,8.79
2019-04-20T23:59:47.004Z,8.63
